createdAt,value
2023-02-23T00:00:47.365Z,7.16
2023-02-23T00:05:54.449Z,7.08
2023-02-23T00:10:58.716Z,7.13
2023-02-23T00:16:03.432Z,7.18
2023-02-23T00:21:05.776Z,7.26
2023-02-23T00:26:08.170Z,7.25
2023-02-23T00:31:10.568Z,7.26
2023-02-23T00:36:13.461Z,7.28
2023-02-23T00:41:20.360Z,7.33
2023-02-23T00:46:23.754Z,7.28
2023-02-23T00:51:27.930Z,7.30
2023-02-23T00:56:30.890Z,7.33
2023-02-23T01:01:33.685Z,7.35
2023-02-23T01:06:37.618Z,7.37
2023-02-23T01:11:48.710Z,7.37
2023-02-23T01:16:51.497Z,7.38
2023-02-23T01:21:54.274Z,7.30
2023-02-23T01:26:56.999Z,7.34
2023-02-23T01:31:59.741Z,7.29
2023-02-23T01:37:03.267Z,7.30
2023-02-23T01:42:06.407Z,7.37
2023-02-23T01:47:09.612Z,7.40
2023-02-23T01:52:12.260Z,7.46
2023-02-23T01:57:14.602Z,7.51
2023-02-23T02:02:17.705Z,7.51
2023-02-23T02:07:20.918Z,7.42
2023-02-23T02:12:24.128Z,7.58
2023-02-23T02:17:26.606Z,7.44
2023-02-23T02:22:29.760Z,7.39
2023-02-23T02:27:32.144Z,7.27
2023-02-23T02:32:37.623Z,7.16
2023-02-23T02:37:40.013Z,7.04
2023-02-23T02:42:43.828Z,6.99
2023-02-23T02:47:50.423Z,7.06
2023-02-23T02:52:52.942Z,7.01
2023-02-23T02:57:56.618Z,7.05
2023-02-23T03:03:17.662Z,7.03
2023-02-23T03:08:37.594Z,6.98
2023-02-23T03:13:57.402Z,7.01
2023-02-23T03:19:18.778Z,6.99
2023-02-23T03:24:38.587Z,6.98
2023-02-23T03:29:58.499Z,6.94
2023-02-23T03:35:18.539Z,6.89
2023-02-23T03:40:42.585Z,6.78
2023-02-23T03:46:02.555Z,6.72
2023-02-23T03:51:22.488Z,6.61
2023-02-23T03:56:42.882Z,6.55
2023-02-23T04:02:03.157Z,6.47
2023-02-23T04:07:23.957Z,6.43
2023-02-23T04:12:44.946Z,6.44
2023-02-23T04:17:48.123Z,6.38
2023-02-23T04:22:50.444Z,6.35
2023-02-23T04:27:52.782Z,6.28
2023-02-23T04:32:55.333Z,6.22
2023-02-23T04:37:57.707Z,6.21
2023-02-23T04:43:00.351Z,6.17
2023-02-23T04:48:03.212Z,6.10
2023-02-23T04:53:05.618Z,6.08
2023-02-23T04:58:13.653Z,5.99
2023-02-23T05:03:17.589Z,5.95
2023-02-23T05:08:20.342Z,5.92
2023-02-23T05:13:23.335Z,5.85
2023-02-23T05:18:26.356Z,5.76
2023-02-23T05:23:29.036Z,5.81
2023-02-23T05:28:31.419Z,5.89
2023-02-23T05:33:33.764Z,5.95
2023-02-23T05:38:36.961Z,6.02
2023-02-23T05:43:39.641Z,6.11
2023-02-23T05:48:42.392Z,6.12
2023-02-23T05:53:45.108Z,6.22
2023-02-23T05:58:47.501Z,6.43
2023-02-23T06:03:50.647Z,6.60
2023-02-23T06:08:54.275Z,6.68
2023-02-23T06:13:57.617Z,6.72
2023-02-23T06:19:01.025Z,6.88
2023-02-23T06:24:03.275Z,6.97
2023-02-23T06:29:05.907Z,7.16
2023-02-23T06:34:08.203Z,7.33
2023-02-23T06:39:10.869Z,7.50
2023-02-23T06:44:13.796Z,7.63
2023-02-23T06:49:16.897Z,7.69
2023-02-23T06:54:19.618Z,7.80
2023-02-23T06:59:26.484Z,7.79
2023-02-23T07:04:29.183Z,8.02
2023-02-23T07:09:31.490Z,8.03
2023-02-23T07:14:34.294Z,8.26
2023-02-23T07:19:36.591Z,8.39
2023-02-23T07:24:39.641Z,8.52
2023-02-23T07:29:43.670Z,8.65
2023-02-23T07:34:47.702Z,8.63
2023-02-23T07:39:50.406Z,8.87
2023-02-23T07:44:53.599Z,9.14
2023-02-23T07:49:56.833Z,9.23
2023-02-23T07:54:59.862Z,9.61
2023-02-23T08:00:02.323Z,9.53
2023-02-23T08:05:05.582Z,9.74
2023-02-23T08:10:08.283Z,9.89
2023-02-23T08:15:10.584Z,9.87
2023-02-23T08:20:14.720Z,9.96
2023-02-23T08:25:17.093Z,9.94
2023-02-23T08:30:21.345Z,9.81
2023-02-23T08:35:23.999Z,9.77
2023-02-23T08:40:26.301Z,10.02
2023-02-23T08:45:29.961Z,10.05
2023-02-23T08:50:32.618Z,10.28
2023-02-23T08:55:40.701Z,10.60
2023-02-23T09:00:43.823Z,10.70
2023-02-23T09:05:47.133Z,10.65
2023-02-23T09:10:53.674Z,10.61
2023-02-23T09:15:57.608Z,11.04
2023-02-23T09:21:06.802Z,11.20
2023-02-23T09:26:09.216Z,11.59
2023-02-23T09:31:11.930Z,11.46
2023-02-23T09:36:16.141Z,11.42
2023-02-23T09:41:19.235Z,11.64
2023-02-23T09:46:21.829Z,11.49
2023-02-23T09:51:24.555Z,11.69
2023-02-23T09:56:27.209Z,11.72
2023-02-23T10:01:30.694Z,11.72
2023-02-23T10:06:34.209Z,12.18
2023-02-23T10:11:38.416Z,12.10
2023-02-23T10:16:43.075Z,12.34
2023-02-23T10:21:45.570Z,12.32
2023-02-23T10:26:47.916Z,12.28
2023-02-23T10:31:51.574Z,12.70
2023-02-23T10:36:53.912Z,12.48
2023-02-23T10:42:05.467Z,12.29
2023-02-23T10:47:17.752Z,12.18
2023-02-23T10:52:20.097Z,12.26
2023-02-23T10:57:23.301Z,12.39
2023-02-23T11:02:25.907Z,12.56
2023-02-23T11:07:29.583Z,12.50
2023-02-23T11:12:32.153Z,12.66
2023-02-23T11:17:34.468Z,12.45
2023-02-23T11:22:39.436Z,12.81
2023-02-23T11:27:42.044Z,13.25
2023-02-23T11:32:44.544Z,13.46
2023-02-23T11:37:47.260Z,13.25
2023-02-23T11:42:50.413Z,13.33
2023-02-23T11:47:54.559Z,13.46
2023-02-23T11:52:57.225Z,13.82
2023-02-23T11:57:59.830Z,13.57
2023-02-23T12:03:02.889Z,13.73
2023-02-23T12:08:05.549Z,13.34
2023-02-23T12:13:08.454Z,13.60
2023-02-23T12:18:10.817Z,13.12
2023-02-23T12:23:14.226Z,12.96
2023-02-23T12:28:19.081Z,13.73
2023-02-23T12:33:21.962Z,13.23
2023-02-23T12:38:27.843Z,12.86
2023-02-23T12:43:31.581Z,12.54
2023-02-23T12:48:33.999Z,13.11
2023-02-23T12:53:36.340Z,13.43
2023-02-23T12:58:38.694Z,13.24
2023-02-23T13:03:41.736Z,13.21
2023-02-23T13:08:44.428Z,13.25
2023-02-23T13:13:46.840Z,13.51
2023-02-23T13:18:49.168Z,13.39
2023-02-23T13:23:52.411Z,13.11
2023-02-23T13:28:56.618Z,13.47
2023-02-23T13:33:59.193Z,13.64
2023-02-23T13:39:05.005Z,13.42
2023-02-23T13:44:12.901Z,13.70
2023-02-23T13:49:15.202Z,13.89
2023-02-23T13:54:18.958Z,12.99
2023-02-23T13:59:21.463Z,13.31
2023-02-23T14:04:24.277Z,13.24
2023-02-23T14:09:27.416Z,13.56
2023-02-23T14:14:29.732Z,13.47
2023-02-23T14:19:32.629Z,13.51
2023-02-23T14:24:35.227Z,13.29
2023-02-23T14:29:40.068Z,13.10
2023-02-23T14:34:42.956Z,12.95
2023-02-23T14:39:45.331Z,13.20
2023-02-23T14:44:51.697Z,13.18
2023-02-23T14:49:54.331Z,13.13
2023-02-23T14:54:57.264Z,12.80
2023-02-23T14:59:59.557Z,12.42
2023-02-23T15:05:01.947Z,12.34
2023-02-23T15:10:06.337Z,12.28
2023-02-23T15:15:10.191Z,12.13
2023-02-23T15:20:16.670Z,11.94
2023-02-23T15:25:19.395Z,11.95
2023-02-23T15:30:21.769Z,11.82
2023-02-23T15:35:24.948Z,11.76
2023-02-23T15:40:27.334Z,11.46
2023-02-23T15:45:31.280Z,11.05
2023-02-23T15:50:37.270Z,10.62
2023-02-23T15:55:41.766Z,10.32
2023-02-23T16:00:45.016Z,9.97
2023-02-23T16:05:57.364Z,9.85
2023-02-23T16:10:59.757Z,9.79
2023-02-23T16:16:02.260Z,9.83
2023-02-23T16:21:05.446Z,9.86
2023-02-23T16:26:10.130Z,9.85
2023-02-23T16:31:14.363Z,9.86
2023-02-23T16:36:17.534Z,9.72
2023-02-23T16:41:21.314Z,9.71
2023-02-23T16:46:24.764Z,9.64
2023-02-23T16:51:27.590Z,9.46
2023-02-23T16:56:30.780Z,9.29
2023-02-23T17:01:33.216Z,9.29
2023-02-23T17:06:35.880Z,9.18
2023-02-23T17:11:38.205Z,9.13
2023-02-23T17:16:41.826Z,9.14
2023-02-23T17:21:44.522Z,8.96
2023-02-23T17:26:47.050Z,8.79
2023-02-23T17:31:50.301Z,8.55
2023-02-23T17:36:52.764Z,8.38
2023-02-23T17:41:57.818Z,8.16
2023-02-23T17:47:00.204Z,8.05
2023-02-23T17:52:03.070Z,7.91
2023-02-23T17:57:05.564Z,7.75
2023-02-23T18:02:08.344Z,7.64
2023-02-23T18:07:10.830Z,7.47
2023-02-23T18:12:13.144Z,7.35
2023-02-23T18:17:16.076Z,7.29
2023-02-23T18:22:18.761Z,7.21
2023-02-23T18:27:21.175Z,7.26
2023-02-23T18:32:24.371Z,7.18
2023-02-23T18:37:28.612Z,7.11
2023-02-23T18:42:31.557Z,6.98
2023-02-23T18:47:33.947Z,6.90
2023-02-23T18:52:38.742Z,6.83
2023-02-23T18:57:43.843Z,6.83
2023-02-23T19:02:47.309Z,6.80
2023-02-23T19:07:50.021Z,6.75
2023-02-23T19:12:53.223Z,6.77
2023-02-23T19:17:56.566Z,6.66
2023-02-23T19:22:58.970Z,6.62
2023-02-23T19:28:02.266Z,6.57
2023-02-23T19:33:05.030Z,6.48
2023-02-23T19:38:07.668Z,6.43
2023-02-23T19:43:11.757Z,6.43
2023-02-23T19:48:15.863Z,6.35
2023-02-23T19:53:19.040Z,6.31
2023-02-23T19:58:26.870Z,6.26
2023-02-23T20:03:29.382Z,6.18
2023-02-23T20:08:32.031Z,6.07
2023-02-23T20:13:34.326Z,5.97
2023-02-23T20:18:38.453Z,5.97
2023-02-23T20:23:44.028Z,5.91
2023-02-23T20:28:46.850Z,5.87
2023-02-23T20:33:50.183Z,5.89
2023-02-23T20:38:54.531Z,5.93
2023-02-23T20:43:57.290Z,6.03
2023-02-23T20:49:00.132Z,6.25
2023-02-23T20:54:03.379Z,6.41
2023-02-23T20:59:05.901Z,6.60
2023-02-23T21:04:09.451Z,6.77
2023-02-23T21:09:17.814Z,6.76
2023-02-23T21:14:21.617Z,6.86
2023-02-23T21:19:24.753Z,6.91
2023-02-23T21:24:28.900Z,6.89
2023-02-23T21:29:31.514Z,6.80
2023-02-23T21:34:33.815Z,6.82
2023-02-23T21:39:36.946Z,6.91
2023-02-23T21:44:39.752Z,7.02
2023-02-23T21:49:42.583Z,7.07
2023-02-23T21:54:46.677Z,7.11
2023-02-23T21:59:50.225Z,7.05
2023-02-23T22:04:58.078Z,6.99
2023-02-23T22:10:01.074Z,6.77
2023-02-23T22:15:06.929Z,6.70
2023-02-23T22:20:10.167Z,6.63
2023-02-23T22:25:12.959Z,6.64
2023-02-23T22:30:16.078Z,6.60
2023-02-23T22:35:18.882Z,6.58
2023-02-23T22:40:21.344Z,6.56
2023-02-23T22:45:23.880Z,6.62
2023-02-23T22:50:26.347Z,6.72
2023-02-23T22:55:29.257Z,6.82
2023-02-23T23:00:32.760Z,6.89
2023-02-23T23:05:45.184Z,6.80
2023-02-23T23:10:49.929Z,6.83
2023-02-23T23:15:55.228Z,6.98
2023-02-23T23:20:57.801Z,7.00
2023-02-23T23:26:01.002Z,7.10
2023-02-23T23:31:04.233Z,7.13
2023-02-23T23:36:07.882Z,7.16
2023-02-23T23:41:13.631Z,7.11
2023-02-23T23:46:17.881Z,7.04
2023-02-23T23:51:20.923Z,7.08
2023-02-23T23:56:24.301Z,7.11
